createdAt,value
2023-04-03T00:00:04.922Z,87.95
2023-04-03T00:01:04.845Z,87.95
2023-04-03T00:02:04.824Z,88.46
2023-04-03T00:03:04.832Z,88.01
2023-04-03T00:04:04.811Z,88.01
2023-04-03T00:05:04.772Z,88.32
2023-04-03T00:06:04.759Z,87.84
2023-04-03T00:07:04.842Z,88.05
2023-04-03T00:08:04.728Z,87.43
2023-04-03T00:09:04.844Z,88.15
2023-04-03T00:10:04.745Z,88.05
2023-04-03T00:11:04.720Z,88.32
2023-04-03T00:12:04.675Z,87.84
2023-04-03T00:13:04.665Z,87.84
2023-04-03T00:14:05.000Z,87.53
2023-04-03T00:15:04.639Z,87.43
2023-04-03T00:16:04.643Z,87.01
2023-04-03T00:17:04.655Z,87.53
2023-04-03T00:18:04.668Z,87.95
2023-04-03T00:19:04.583Z,87.95
2023-04-03T00:20:04.569Z,87.22
2023-04-03T00:21:04.565Z,87.53
2023-04-03T00:22:04.542Z,87.53
2023-04-03T00:23:04.536Z,87.63
2023-04-03T00:24:04.517Z,88.05
2023-04-03T00:25:04.502Z,87.53
2023-04-03T00:26:04.482Z,87.53
2023-04-03T00:27:04.472Z,87.01
2023-04-03T00:28:04.455Z,87.53
2023-04-03T00:29:04.484Z,86.80
2023-04-03T00:30:04.442Z,86.70
2023-04-03T00:31:04.458Z,87.47
2023-04-03T00:32:04.428Z,87.68
2023-04-03T00:33:04.415Z,86.91
2023-04-03T00:34:04.380Z,86.74
2023-04-03T00:35:04.378Z,87.22
2023-04-03T00:36:04.410Z,86.60
2023-04-03T00:37:04.386Z,87.01
2023-04-03T00:38:04.331Z,87.74
2023-04-03T00:39:04.317Z,87.32
2023-04-03T00:40:04.295Z,87.12
2023-04-03T00:41:04.281Z,87.22
2023-04-03T00:42:04.265Z,87.43
2023-04-03T00:43:04.256Z,87.47
2023-04-03T00:44:04.241Z,87.43
2023-04-03T00:45:04.228Z,86.39
2023-04-03T00:46:04.227Z,86.95
2023-04-03T00:47:04.199Z,86.85
2023-04-03T00:48:04.261Z,86.80
2023-04-03T00:49:04.178Z,87.05
2023-04-03T00:50:04.165Z,86.43
2023-04-03T00:51:04.152Z,86.74
2023-04-03T00:52:04.140Z,86.85
2023-04-03T00:53:04.125Z,87.37
2023-04-03T00:54:04.117Z,86.74
2023-04-03T00:55:04.096Z,86.91
2023-04-03T00:56:04.089Z,87.26
2023-04-03T00:57:04.067Z,87.16
2023-04-03T00:58:04.061Z,87.47
2023-04-03T00:59:04.037Z,87.47
2023-04-03T01:00:04.032Z,87.16
2023-04-03T01:01:04.009Z,87.05
2023-04-03T01:02:04.041Z,86.95
2023-04-03T01:03:04.013Z,86.64
2023-04-03T01:04:04.167Z,86.43
2023-04-03T01:05:03.966Z,86.39
2023-04-03T01:06:03.953Z,86.43
2023-04-03T01:07:03.935Z,86.39
2023-04-03T01:08:03.927Z,86.12
2023-04-03T01:09:03.905Z,86.43
2023-04-03T01:10:03.911Z,86.02
2023-04-03T01:11:03.876Z,86.43
2023-04-03T01:12:03.867Z,86.33
2023-04-03T01:13:03.856Z,86.64
2023-04-03T01:14:03.857Z,86.95
2023-04-03T01:15:03.860Z,86.22
2023-04-03T01:16:03.829Z,86.36
2023-04-03T01:17:03.800Z,86.64
2023-04-03T01:18:03.836Z,86.12
2023-04-03T01:19:03.776Z,86.74
2023-04-03T01:20:03.783Z,86.22
2023-04-03T01:21:03.765Z,86.54
2023-04-03T01:22:03.729Z,85.91
2023-04-03T01:23:03.718Z,86.26
2023-04-03T01:24:03.704Z,86.43
2023-04-03T01:25:03.692Z,85.85
2023-04-03T01:26:03.678Z,86.64
2023-04-03T01:27:03.689Z,86.12
2023-04-03T01:28:03.655Z,85.81
2023-04-03T01:29:03.638Z,85.60
2023-04-03T01:30:03.637Z,85.81
2023-04-03T01:31:03.617Z,86.33
2023-04-03T01:32:03.602Z,86.99
2023-04-03T01:33:03.610Z,86.33
2023-04-03T01:34:03.600Z,86.05
2023-04-03T01:35:03.572Z,86.36
2023-04-03T01:36:03.600Z,86.47
2023-04-03T01:37:03.543Z,86.05
2023-04-03T01:38:03.511Z,86.16
2023-04-03T01:39:03.518Z,86.05
2023-04-03T01:40:03.490Z,85.64
2023-04-03T01:41:03.501Z,85.85
2023-04-03T01:42:03.465Z,86.57
2023-04-03T01:43:03.452Z,86.78
2023-04-03T01:44:03.432Z,86.57
2023-04-03T01:45:03.426Z,86.16
2023-04-03T01:46:03.459Z,86.47
2023-04-03T01:47:03.403Z,86.26
2023-04-03T01:48:03.384Z,86.26
2023-04-03T01:49:03.368Z,86.26
2023-04-03T01:50:03.356Z,86.26
2023-04-03T01:51:03.345Z,85.74
2023-04-03T01:52:03.362Z,86.47
2023-04-03T01:53:03.325Z,86.05
2023-04-03T01:54:03.301Z,86.47
2023-04-03T01:55:03.311Z,86.78
2023-04-03T01:56:03.281Z,86.19
2023-04-03T01:57:03.302Z,86.36
2023-04-03T01:58:03.547Z,86.26
2023-04-03T01:59:03.251Z,86.41
2023-04-03T02:00:03.216Z,86.41
2023-04-03T02:01:03.264Z,86.61
2023-04-03T02:02:03.189Z,86.30
2023-04-03T02:03:03.209Z,86.72
2023-04-03T02:04:03.190Z,86.68
2023-04-03T02:05:03.150Z,86.72
2023-04-03T02:06:03.140Z,86.99
2023-04-03T02:07:03.132Z,86.68
2023-04-03T02:08:03.143Z,86.82
2023-04-03T02:09:03.103Z,86.99
2023-04-03T02:10:03.099Z,86.72
2023-04-03T02:11:03.079Z,86.51
2023-04-03T02:12:03.079Z,86.61
2023-04-03T02:13:03.040Z,86.93
2023-04-03T02:14:03.033Z,86.93
2023-04-03T02:15:03.024Z,86.51
2023-04-03T02:16:03.004Z,86.93
2023-04-03T02:17:03.071Z,87.03
2023-04-03T02:18:03.010Z,87.03
2023-04-03T02:19:02.965Z,86.72
2023-04-03T02:20:02.955Z,86.41
2023-04-03T02:21:02.953Z,86.51
2023-04-03T02:22:02.938Z,86.09
2023-04-03T02:23:02.913Z,85.78
2023-04-03T02:24:02.917Z,86.41
2023-04-03T02:25:02.885Z,86.51
2023-04-03T02:26:02.985Z,86.51
2023-04-03T02:27:02.850Z,86.51
2023-04-03T02:28:02.832Z,86.09
2023-04-03T02:29:02.831Z,85.88
2023-04-03T02:30:02.805Z,85.78
2023-04-03T02:31:02.867Z,86.19
2023-04-03T02:32:02.787Z,85.78
2023-04-03T02:33:02.813Z,85.57
2023-04-03T02:34:02.759Z,85.36
2023-04-03T02:35:02.755Z,85.68
2023-04-03T02:36:02.835Z,85.05
2023-04-03T02:37:02.737Z,84.64
2023-04-03T02:38:02.706Z,84.43
2023-04-03T02:39:02.697Z,84.95
2023-04-03T02:40:02.749Z,84.95
2023-04-03T02:41:02.686Z,85.26
2023-04-03T02:42:02.657Z,84.95
2023-04-03T02:43:02.650Z,84.74
2023-04-03T02:44:02.620Z,85.30
2023-04-03T02:45:02.615Z,85.05
2023-04-03T02:46:02.622Z,84.43
2023-04-03T02:47:02.580Z,84.58
2023-04-03T02:48:02.604Z,85.20
2023-04-03T02:49:02.567Z,85.47
2023-04-03T02:50:02.559Z,85.68
2023-04-03T02:51:02.530Z,85.36
2023-04-03T02:52:02.518Z,85.05
2023-04-03T02:53:02.516Z,85.05
2023-04-03T02:54:02.507Z,84.01
2023-04-03T02:55:02.776Z,84.43
2023-04-03T02:56:02.488Z,84.68
2023-04-03T02:57:02.497Z,84.84
2023-04-03T02:58:02.437Z,84.84
2023-04-03T02:59:02.621Z,85.36
2023-04-03T03:00:02.607Z,85.16
2023-04-03T03:01:02.393Z,84.68
2023-04-03T03:02:02.552Z,84.64
2023-04-03T03:03:02.384Z,85.16
2023-04-03T03:04:02.368Z,85.10
2023-04-03T03:05:02.463Z,84.95
2023-04-03T03:06:02.331Z,84.43
2023-04-03T03:07:02.319Z,84.78
2023-04-03T03:08:02.318Z,85.20
2023-04-03T03:09:02.297Z,84.84
2023-04-03T03:10:02.294Z,85.36
2023-04-03T03:11:02.273Z,85.72
2023-04-03T03:12:02.268Z,85.10
2023-04-03T03:13:02.226Z,85.05
2023-04-03T03:14:02.217Z,84.68
2023-04-03T03:15:02.205Z,84.47
2023-04-03T03:16:02.309Z,84.99
2023-04-03T03:17:02.175Z,84.89
2023-04-03T03:18:02.273Z,85.10
2023-04-03T03:19:02.148Z,84.99
2023-04-03T03:20:02.375Z,85.30
2023-04-03T03:21:02.131Z,85.51
2023-04-03T03:22:02.118Z,85.51
2023-04-03T03:23:02.365Z,84.99
2023-04-03T03:24:02.081Z,84.68
2023-04-03T03:25:02.113Z,84.47
2023-04-03T03:26:02.063Z,84.99
2023-04-03T03:27:02.036Z,85.20
2023-04-03T03:28:02.050Z,84.78
2023-04-03T03:29:02.010Z,85.36
2023-04-03T03:30:02.006Z,85.20
2023-04-03T03:31:02.039Z,85.41
2023-04-03T03:32:02.322Z,84.99
2023-04-03T03:33:02.136Z,84.99
2023-04-03T03:34:01.948Z,85.20
2023-04-03T03:35:01.934Z,84.68
2023-04-03T03:36:01.957Z,85.30
2023-04-03T03:37:01.916Z,85.20
2023-04-03T03:38:01.938Z,85.20
2023-04-03T03:39:01.874Z,85.10
2023-04-03T03:40:01.868Z,85.10
2023-04-03T03:41:01.862Z,85.30
2023-04-03T03:42:01.840Z,84.99
2023-04-03T03:43:01.833Z,85.10
2023-04-03T03:44:01.851Z,84.99
2023-04-03T03:45:01.796Z,84.99
2023-04-03T03:46:01.781Z,84.99
2023-04-03T03:47:01.774Z,84.78
2023-04-03T03:48:01.775Z,85.30
2023-04-03T03:49:01.743Z,84.99
2023-04-03T03:50:01.726Z,85.20
2023-04-03T03:51:01.726Z,85.30
2023-04-03T03:52:01.697Z,85.51
2023-04-03T03:53:01.688Z,85.41
2023-04-03T03:54:01.674Z,85.20
2023-04-03T03:55:01.659Z,85.20
2023-04-03T03:56:01.640Z,85.20
2023-04-03T03:57:01.656Z,84.99
2023-04-03T03:58:01.631Z,84.99
2023-04-03T03:59:01.607Z,85.10
2023-04-03T04:00:01.616Z,85.10
2023-04-03T04:01:01.590Z,85.61
2023-04-03T04:02:01.622Z,85.30
2023-04-03T04:03:01.606Z,85.10
2023-04-03T04:04:01.591Z,85.20
2023-04-03T04:05:01.524Z,84.78
2023-04-03T04:06:01.508Z,85.20
2023-04-03T04:07:01.495Z,85.30
2023-04-03T04:08:01.491Z,85.51
2023-04-03T04:09:01.465Z,85.34
2023-04-03T04:10:01.462Z,85.20
2023-04-03T04:11:01.436Z,85.61
2023-04-03T04:12:01.421Z,85.51
2023-04-03T04:13:01.458Z,85.51
2023-04-03T04:14:01.413Z,85.72
2023-04-03T04:15:01.381Z,85.72
2023-04-03T04:16:01.394Z,85.82
2023-04-03T04:17:01.407Z,85.34
2023-04-03T04:18:01.417Z,85.24
2023-04-03T04:19:01.334Z,85.61
2023-04-03T04:20:01.315Z,85.65
2023-04-03T04:21:01.307Z,85.51
2023-04-03T04:22:01.287Z,85.30
2023-04-03T04:23:01.318Z,84.99
2023-04-03T04:24:01.263Z,85.61
2023-04-03T04:25:01.260Z,85.51
2023-04-03T04:26:01.253Z,85.34
2023-04-03T04:27:01.226Z,85.51
2023-04-03T04:28:01.214Z,85.75
2023-04-03T04:29:01.202Z,86.13
2023-04-03T04:30:01.182Z,86.07
2023-04-03T04:31:01.228Z,86.03
2023-04-03T04:32:01.175Z,86.07
2023-04-03T04:33:01.188Z,85.82
2023-04-03T04:34:01.143Z,86.13
2023-04-03T04:35:01.177Z,86.13
2023-04-03T04:36:01.156Z,86.13
2023-04-03T04:37:01.238Z,86.03
2023-04-03T04:38:01.089Z,85.82
2023-04-03T04:39:01.055Z,86.27
2023-04-03T04:40:01.056Z,86.24
2023-04-03T04:41:01.036Z,86.38
2023-04-03T04:42:01.034Z,86.24
2023-04-03T04:43:01.012Z,85.86
2023-04-03T04:44:00.996Z,86.34
2023-04-03T04:45:00.982Z,86.34
2023-04-03T04:46:00.997Z,86.49
2023-04-03T04:47:00.951Z,86.27
2023-04-03T04:48:00.989Z,85.82
2023-04-03T04:49:00.932Z,85.86
2023-04-03T04:50:00.912Z,86.24
2023-04-03T04:51:00.912Z,86.38
2023-04-03T04:52:00.884Z,86.34
2023-04-03T04:53:00.871Z,85.93
2023-04-03T04:54:00.859Z,85.82
2023-04-03T04:55:00.849Z,85.82
2023-04-03T04:56:00.825Z,85.51
2023-04-03T04:57:00.824Z,85.82
2023-04-03T04:58:00.818Z,85.96
2023-04-03T04:59:00.786Z,86.03
2023-04-03T05:00:00.785Z,85.93
2023-04-03T05:01:00.767Z,85.93
2023-04-03T05:02:00.772Z,85.93
2023-04-03T05:03:00.764Z,85.41
2023-04-03T05:04:00.750Z,85.82
2023-04-03T05:05:02.448Z,85.72
2023-04-03T05:06:00.707Z,85.51
2023-04-03T05:07:00.694Z,85.41
2023-04-03T05:08:00.677Z,85.10
2023-04-03T05:09:00.657Z,84.68
2023-04-03T05:10:00.680Z,84.68
2023-04-03T05:11:00.638Z,84.89
2023-04-03T05:12:00.630Z,84.47
2023-04-03T05:13:00.608Z,84.27
2023-04-03T05:14:00.588Z,84.64
2023-04-03T05:15:00.578Z,84.99
2023-04-03T05:16:00.593Z,84.99
2023-04-03T05:17:00.695Z,84.43
2023-04-03T05:18:00.614Z,84.37
2023-04-03T05:19:00.528Z,84.47
2023-04-03T05:20:00.535Z,84.27
2023-04-03T05:21:00.498Z,83.74
2023-04-03T05:22:00.491Z,84.05
2023-04-03T05:23:00.464Z,83.84
2023-04-03T05:24:00.448Z,84.12
2023-04-03T05:25:00.440Z,83.64
2023-04-03T05:26:00.424Z,83.91
2023-04-03T05:27:00.409Z,83.70
2023-04-03T05:28:00.402Z,83.12
2023-04-03T05:29:00.416Z,83.70
2023-04-03T05:30:00.387Z,83.01
2023-04-03T05:31:00.361Z,82.46
2023-04-03T05:32:00.375Z,83.18
2023-04-03T05:33:00.356Z,82.77
2023-04-03T05:34:00.327Z,82.77
2023-04-03T05:35:01.381Z,82.56
2023-04-03T05:36:00.326Z,82.50
2023-04-03T05:37:00.280Z,82.56
2023-04-03T05:38:00.415Z,82.35
2023-04-03T05:39:00.251Z,82.46
2023-04-03T05:40:00.236Z,82.25
2023-04-03T05:41:00.218Z,82.25
2023-04-03T05:42:00.210Z,81.52
2023-04-03T05:43:00.198Z,81.63
2023-04-03T05:44:00.182Z,81.63
2023-04-03T05:45:00.166Z,81.52
2023-04-03T05:46:00.216Z,81.52
2023-04-03T05:47:00.142Z,81.01
2023-04-03T05:48:00.238Z,81.38
2023-04-03T05:51:15.585Z,79.86
2023-04-03T05:52:15.546Z,80.07
2023-04-03T05:53:15.527Z,80.49
2023-04-03T05:54:15.515Z,79.93
2023-04-03T05:55:15.507Z,80.04
2023-04-03T05:56:15.485Z,79.86
2023-04-03T05:57:15.499Z,80.28
2023-04-03T05:58:15.470Z,80.04
2023-04-03T05:59:15.455Z,80.04
2023-04-03T06:00:15.492Z,80.04
2023-04-03T06:01:15.420Z,79.72
2023-04-03T06:02:15.406Z,78.47
2023-04-03T06:03:15.622Z,78.47
2023-04-03T06:04:15.432Z,77.75
2023-04-03T06:05:15.394Z,78.27
2023-04-03T06:06:15.366Z,77.95
2023-04-03T06:07:15.368Z,77.23
2023-04-03T06:08:15.334Z,77.30
2023-04-03T06:09:15.518Z,76.71
2023-04-03T06:10:15.301Z,76.37
2023-04-03T06:11:15.292Z,77.51
2023-04-03T06:12:15.284Z,77.51
2023-04-03T06:13:15.263Z,77.09
2023-04-03T06:14:15.247Z,77.72
2023-04-03T06:15:15.236Z,77.51
2023-04-03T06:16:15.255Z,77.51
2023-04-03T06:17:15.306Z,76.47
2023-04-03T06:18:15.195Z,77.06
2023-04-03T06:19:15.189Z,77.51
2023-04-03T06:20:15.178Z,74.57
2023-04-03T06:21:15.149Z,75.60
2023-04-03T06:22:15.144Z,76.02
2023-04-03T06:23:15.176Z,76.02
2023-04-03T06:24:15.116Z,74.98
2023-04-03T06:25:15.119Z,74.57
2023-04-03T06:26:15.088Z,74.88
2023-04-03T06:27:15.278Z,74.98
2023-04-03T06:28:15.061Z,74.15
2023-04-03T06:29:15.049Z,74.77
2023-04-03T06:30:15.030Z,74.98
2023-04-03T06:31:15.043Z,73.94
2023-04-03T06:32:15.014Z,73.94
2023-04-03T06:33:15.004Z,74.05
2023-04-03T06:34:15.010Z,73.63
2023-04-03T06:35:14.971Z,73.63
2023-04-03T06:36:14.991Z,73.43
2023-04-03T06:37:14.940Z,73.94
2023-04-03T06:38:14.928Z,74.43
2023-04-03T06:39:14.939Z,74.36
2023-04-03T06:40:14.904Z,74.22
2023-04-03T06:41:14.881Z,73.84
2023-04-03T06:42:14.872Z,73.49
2023-04-03T06:43:14.858Z,73.49
2023-04-03T06:44:14.845Z,73.60
2023-04-03T06:45:14.831Z,74.32
2023-04-03T06:46:15.058Z,74.01
2023-04-03T06:47:14.804Z,74.01
2023-04-03T06:48:14.858Z,74.32
2023-04-03T06:49:14.783Z,74.22
2023-04-03T06:50:14.793Z,74.74
2023-04-03T06:51:14.752Z,74.26
2023-04-03T06:52:14.756Z,74.63
2023-04-03T06:53:14.731Z,74.74
2023-04-03T06:54:14.718Z,74.71
2023-04-03T06:55:14.743Z,75.05
2023-04-03T06:56:14.686Z,74.60
2023-04-03T06:57:14.679Z,74.40
2023-04-03T06:58:14.916Z,74.60
2023-04-03T06:59:14.640Z,75.53
2023-04-03T07:00:14.623Z,74.71
2023-04-03T07:01:14.652Z,74.40
2023-04-03T07:02:14.599Z,74.40
2023-04-03T07:03:14.740Z,74.29
2023-04-03T07:04:14.603Z,74.40
2023-04-03T07:05:14.566Z,73.88
2023-04-03T07:06:14.548Z,74.29
2023-04-03T07:07:14.532Z,73.57
2023-04-03T07:08:14.532Z,74.40
2023-04-03T07:09:14.525Z,74.40
2023-04-03T07:10:14.489Z,75.63
2023-04-03T07:11:14.659Z,74.60
2023-04-03T07:12:14.803Z,74.40
2023-04-03T07:13:14.453Z,74.40
2023-04-03T07:14:14.439Z,74.50
2023-04-03T07:15:14.425Z,74.15
2023-04-03T07:16:14.469Z,74.15
2023-04-03T07:17:14.395Z,73.94
2023-04-03T07:18:14.448Z,73.53
2023-04-03T07:19:14.369Z,73.71
2023-04-03T07:20:14.349Z,73.91
2023-04-03T07:21:14.335Z,73.36
2023-04-03T07:22:14.328Z,72.74
2023-04-03T07:23:14.315Z,72.64
2023-04-03T07:24:16.226Z,72.39
2023-04-03T07:25:14.350Z,71.70
2023-04-03T07:26:14.280Z,71.26
2023-04-03T07:27:14.281Z,71.57
2023-04-03T07:28:14.256Z,70.84
2023-04-03T07:29:14.232Z,70.61
2023-04-03T07:30:14.228Z,71.02
2023-04-03T07:31:14.262Z,70.95
2023-04-03T07:32:14.202Z,71.67
2023-04-03T07:33:14.383Z,70.64
2023-04-03T07:34:14.264Z,71.36
2023-04-03T07:35:14.152Z,70.40
2023-04-03T07:36:14.207Z,70.81
2023-04-03T07:37:14.129Z,70.37
2023-04-03T07:38:14.126Z,69.23
2023-04-03T07:39:14.105Z,69.67
2023-04-03T07:40:14.093Z,68.92
2023-04-03T07:41:14.077Z,70.26
2023-04-03T07:42:14.078Z,70.16
2023-04-03T07:43:14.068Z,71.26
2023-04-03T07:44:14.200Z,69.92
2023-04-03T07:45:14.015Z,68.13
2023-04-03T07:46:14.044Z,69.48
2023-04-03T07:47:13.996Z,68.30
2023-04-03T07:48:14.010Z,68.34
2023-04-03T07:49:13.961Z,66.76
2023-04-03T07:50:13.954Z,69.27
2023-04-03T07:51:13.942Z,68.21
2023-04-03T07:52:13.920Z,68.07
2023-04-03T07:53:13.914Z,68.59
2023-04-03T07:54:13.898Z,66.21
2023-04-03T07:55:13.886Z,66.63
2023-04-03T07:56:13.873Z,68.17
2023-04-03T07:57:13.877Z,68.07
2023-04-03T07:58:13.847Z,66.63
2023-04-03T07:59:13.854Z,67.14
2023-04-03T08:00:13.830Z,66.83
2023-04-03T08:01:13.798Z,66.80
2023-04-03T08:02:13.787Z,66.91
2023-04-03T08:03:13.953Z,67.21
2023-04-03T08:04:14.078Z,66.28
2023-04-03T08:05:13.747Z,66.25
2023-04-03T08:06:16.452Z,66.80
2023-04-03T08:07:13.724Z,66.52
2023-04-03T08:08:13.715Z,67.38
2023-04-03T08:09:13.711Z,67.07
2023-04-03T08:10:13.680Z,67.17
2023-04-03T08:11:13.669Z,68.48
2023-04-03T08:12:13.662Z,66.91
2023-04-03T08:13:13.634Z,66.18
2023-04-03T08:14:13.628Z,66.05
2023-04-03T08:15:13.832Z,66.67
2023-04-03T08:16:13.657Z,66.05
2023-04-03T08:17:13.581Z,65.88
2023-04-03T08:18:13.572Z,66.08
2023-04-03T08:19:22.361Z,67.18
2023-04-03T08:20:14.570Z,66.91
2023-04-03T08:21:13.527Z,66.97
2023-04-03T08:22:13.517Z,66.56
2023-04-03T08:23:13.506Z,66.08
2023-04-03T08:24:13.499Z,66.94
2023-04-03T08:25:13.474Z,67.32
2023-04-03T08:26:13.459Z,66.94
2023-04-03T08:27:13.445Z,67.14
2023-04-03T08:28:13.430Z,66.73
2023-04-03T08:29:13.414Z,67.69
2023-04-03T08:30:13.402Z,67.76
2023-04-03T08:31:13.522Z,67.76
2023-04-03T08:32:13.378Z,67.66
2023-04-03T08:33:13.440Z,68.07
2023-04-03T08:34:13.363Z,67.14
2023-04-03T08:35:13.336Z,67.35
2023-04-03T08:36:13.400Z,68.48
2023-04-03T08:37:13.302Z,67.32
2023-04-03T08:38:13.312Z,67.00
2023-04-03T08:39:13.282Z,66.70
2023-04-03T08:40:13.260Z,65.98
2023-04-03T08:41:13.250Z,67.63
2023-04-03T08:42:13.241Z,66.91
2023-04-03T08:43:13.242Z,67.70
2023-04-03T08:44:13.221Z,65.77
2023-04-03T08:45:13.216Z,66.97
2023-04-03T08:46:13.246Z,66.97
2023-04-03T08:47:13.297Z,66.70
2023-04-03T08:48:13.246Z,66.73
2023-04-03T08:49:14.055Z,66.18
2023-04-03T08:50:13.129Z,66.49
2023-04-03T08:51:13.115Z,66.60
2023-04-03T08:52:13.107Z,66.91
2023-04-03T08:53:13.088Z,66.91
2023-04-03T08:54:13.074Z,67.14
2023-04-03T08:55:13.057Z,66.21
2023-04-03T08:56:13.048Z,67.32
2023-04-03T08:57:13.056Z,67.93
2023-04-03T08:58:13.043Z,66.25
2023-04-03T08:59:13.011Z,67.08
2023-04-03T09:00:12.995Z,66.84
2023-04-03T09:01:13.019Z,65.71
2023-04-03T09:02:12.971Z,65.50
2023-04-03T09:03:13.225Z,65.40
2023-04-03T09:04:13.018Z,65.68
2023-04-03T09:05:12.939Z,66.53
2023-04-03T09:06:12.913Z,64.78
2023-04-03T09:07:12.894Z,65.84
2023-04-03T09:08:12.884Z,66.25
2023-04-03T09:09:12.874Z,65.22
2023-04-03T09:10:13.057Z,66.87
2023-04-03T09:11:12.848Z,66.05
2023-04-03T09:12:12.829Z,66.33
2023-04-03T09:13:12.814Z,66.43
2023-04-03T09:14:12.806Z,65.81
2023-04-03T09:15:12.794Z,66.12
2023-04-03T09:16:12.840Z,64.68
2023-04-03T09:17:12.762Z,65.09
2023-04-03T09:18:12.766Z,66.09
2023-04-03T09:19:12.864Z,64.99
2023-04-03T09:20:12.726Z,64.24
2023-04-03T09:21:12.709Z,65.06
2023-04-03T09:22:13.047Z,64.96
2023-04-03T09:23:12.676Z,64.34
2023-04-03T09:24:12.674Z,63.93
2023-04-03T09:25:12.654Z,64.03
2023-04-03T09:26:12.671Z,64.24
2023-04-03T09:27:12.659Z,64.31
2023-04-03T09:28:12.625Z,64.93
2023-04-03T09:29:12.621Z,64.41
2023-04-03T09:30:12.588Z,64.34
2023-04-03T09:31:12.625Z,63.90
2023-04-03T09:32:12.576Z,63.10
2023-04-03T09:33:12.620Z,63.72
2023-04-03T09:34:12.533Z,64.17
2023-04-03T09:35:20.582Z,65.16
2023-04-03T09:36:13.547Z,65.13
2023-04-03T09:37:12.494Z,63.07
2023-04-03T09:38:12.479Z,63.62
2023-04-03T09:39:12.475Z,63.52
2023-04-03T09:40:12.465Z,63.62
2023-04-03T09:41:12.430Z,64.14
2023-04-03T09:42:12.432Z,63.75
2023-04-03T09:43:12.412Z,64.24
2023-04-03T09:44:12.406Z,63.79
2023-04-03T09:45:12.387Z,64.00
2023-04-03T09:46:12.496Z,64.62
2023-04-03T09:47:12.384Z,63.15
2023-04-03T09:48:16.205Z,63.87
2023-04-03T09:49:12.339Z,63.97
2023-04-03T09:50:12.325Z,60.99
2023-04-03T09:51:12.719Z,61.40
2023-04-03T09:52:12.291Z,61.91
2023-04-03T09:53:12.274Z,62.12
2023-04-03T09:54:12.268Z,62.05
2023-04-03T09:55:12.398Z,62.25
2023-04-03T09:56:12.250Z,61.84
2023-04-03T09:57:12.280Z,61.87
2023-04-03T09:58:12.215Z,62.28
2023-04-03T09:59:12.197Z,62.77
2023-04-03T10:00:12.183Z,62.97
2023-04-03T10:01:12.232Z,62.46
2023-04-03T10:02:12.156Z,62.66
2023-04-03T10:03:12.177Z,62.05
2023-04-03T10:04:12.168Z,62.53
2023-04-03T10:05:12.461Z,61.81
2023-04-03T10:06:12.098Z,61.25
2023-04-03T10:07:12.286Z,62.38
2023-04-03T10:08:12.090Z,62.38
2023-04-03T10:09:12.061Z,63.54
2023-04-03T10:10:12.044Z,62.93
2023-04-03T10:11:12.041Z,63.03
2023-04-03T10:12:12.019Z,61.69
2023-04-03T10:13:16.483Z,61.72
2023-04-03T10:14:13.057Z,61.93
2023-04-03T10:15:12.017Z,62.26
2023-04-03T10:16:11.987Z,62.96
2023-04-03T10:17:11.951Z,63.37
2023-04-03T10:18:24.012Z,62.62
2023-04-03T10:19:12.949Z,62.72
2023-04-03T10:20:11.917Z,62.52
2023-04-03T10:21:24.715Z,61.87
2023-04-03T10:22:13.472Z,62.28
2023-04-03T10:23:11.992Z,62.12
2023-04-03T10:24:11.858Z,61.09
2023-04-03T10:25:11.842Z,61.27
2023-04-03T10:26:13.994Z,60.93
2023-04-03T10:27:11.838Z,59.70
2023-04-03T10:28:11.801Z,60.08
2023-04-03T10:29:11.788Z,60.19
2023-04-03T10:30:11.781Z,58.95
2023-04-03T10:31:11.802Z,57.90
2023-04-03T10:32:11.743Z,58.51
2023-04-03T10:33:11.730Z,57.59
2023-04-03T10:34:11.726Z,57.64
2023-04-03T10:35:11.711Z,58.54
2023-04-03T10:36:11.725Z,58.13
2023-04-03T10:37:11.678Z,57.21
2023-04-03T10:38:11.666Z,57.16
2023-04-03T10:39:11.771Z,58.98
2023-04-03T10:40:11.636Z,58.67
2023-04-03T10:41:11.618Z,57.23
2023-04-03T10:42:17.040Z,58.64
2023-04-03T10:43:11.848Z,58.23
2023-04-03T10:44:11.608Z,57.36
2023-04-03T10:45:11.567Z,57.78
2023-04-03T10:46:11.623Z,57.67
2023-04-03T10:47:11.584Z,57.16
2023-04-03T10:48:11.647Z,57.06
2023-04-03T10:49:11.514Z,57.50
2023-04-03T10:50:11.508Z,58.52
2023-04-03T10:51:11.480Z,58.31
2023-04-03T10:52:11.473Z,57.50
2023-04-03T10:53:11.458Z,57.98
2023-04-03T10:54:11.453Z,57.88
2023-04-03T10:55:11.556Z,56.87
2023-04-03T10:56:11.429Z,57.59
2023-04-03T10:57:13.066Z,58.03
2023-04-03T10:58:12.524Z,58.52
2023-04-03T10:59:11.371Z,58.08
2023-04-03T11:00:11.371Z,56.98
2023-04-03T11:01:11.380Z,58.11
2023-04-03T11:02:11.338Z,58.73
2023-04-03T11:03:11.397Z,57.50
2023-04-03T11:04:11.348Z,58.03
2023-04-03T11:05:11.302Z,58.14
2023-04-03T11:06:11.288Z,57.93
2023-04-03T11:07:11.269Z,57.82
2023-04-03T11:08:11.294Z,57.62
2023-04-03T11:09:11.242Z,58.03
2023-04-03T11:10:11.229Z,57.73
2023-04-03T11:11:11.381Z,58.47
2023-04-03T11:12:11.202Z,58.03
2023-04-03T11:13:11.187Z,58.68
2023-04-03T11:14:11.173Z,58.93
2023-04-03T11:15:11.168Z,58.42
2023-04-03T11:16:11.183Z,57.70
2023-04-03T11:17:11.156Z,56.87
2023-04-03T11:18:11.884Z,56.52
2023-04-03T11:19:11.109Z,57.86
2023-04-03T11:20:11.099Z,57.73
2023-04-03T11:21:11.076Z,58.11
2023-04-03T11:22:11.070Z,56.18
2023-04-03T11:23:11.052Z,57.80
2023-04-03T11:24:11.038Z,56.46
2023-04-03T11:25:11.222Z,56.77
2023-04-03T11:26:11.010Z,56.54
2023-04-03T11:27:11.120Z,56.31
2023-04-03T11:28:10.992Z,56.41
2023-04-03T11:29:13.935Z,55.59
2023-04-03T11:30:10.961Z,55.08
2023-04-03T11:31:10.989Z,54.87
2023-04-03T11:32:10.982Z,55.66
2023-04-03T11:33:10.939Z,55.57
2023-04-03T11:34:10.899Z,54.66
2023-04-03T11:35:10.904Z,54.97
2023-04-03T11:36:24.653Z,55.41
2023-04-03T11:37:11.915Z,56.72
2023-04-03T11:38:10.839Z,54.64
2023-04-03T11:39:10.833Z,55.49
2023-04-03T11:40:10.818Z,54.66
2023-04-03T11:41:10.811Z,54.90
2023-04-03T11:42:13.164Z,55.10
2023-04-03T11:43:10.903Z,55.62
2023-04-03T11:44:10.762Z,54.72
2023-04-03T11:45:10.751Z,55.05
2023-04-03T11:46:10.781Z,54.35
2023-04-03T11:47:10.805Z,56.10
2023-04-03T11:48:23.720Z,55.28
2023-04-03T11:49:11.717Z,55.36
2023-04-03T11:50:10.685Z,54.15
2023-04-03T11:51:10.664Z,53.63
2023-04-03T11:52:10.659Z,55.38
2023-04-03T11:53:10.643Z,54.66
2023-04-03T11:54:10.626Z,54.77
2023-04-03T11:55:10.613Z,56.10
2023-04-03T11:56:11.043Z,55.74
2023-04-03T11:57:10.617Z,55.23
2023-04-03T11:58:10.563Z,55.43
2023-04-03T11:59:10.682Z,56.02
2023-04-03T12:00:10.557Z,55.64
2023-04-03T12:01:10.527Z,55.23
2023-04-03T12:02:10.546Z,55.74
2023-04-03T12:03:10.596Z,55.64
2023-04-03T12:04:10.566Z,56.95
2023-04-03T12:05:10.477Z,55.62
2023-04-03T12:06:10.463Z,56.62
2023-04-03T12:07:10.471Z,55.18
2023-04-03T12:08:10.446Z,55.93
2023-04-03T12:09:10.452Z,55.51
2023-04-03T12:10:11.528Z,56.62
2023-04-03T12:11:10.539Z,56.72
2023-04-03T12:12:10.375Z,57.03
2023-04-03T12:13:10.366Z,56.82
2023-04-03T12:14:10.349Z,56.59
2023-04-03T12:15:10.586Z,54.79
2023-04-03T12:16:10.322Z,55.46
2023-04-03T12:17:10.415Z,56.93
2023-04-03T12:18:10.356Z,58.06
2023-04-03T12:19:10.283Z,58.16
2023-04-03T12:20:10.306Z,59.06
2023-04-03T12:21:10.262Z,59.06
2023-04-03T12:22:10.245Z,57.80
2023-04-03T12:23:10.232Z,58.42
2023-04-03T12:24:10.244Z,58.24
2023-04-03T12:25:10.273Z,58.42
2023-04-03T12:26:10.189Z,58.03
2023-04-03T12:27:10.178Z,58.45
2023-04-03T12:28:10.454Z,58.34
2023-04-03T12:29:10.151Z,57.62
2023-04-03T12:30:10.238Z,57.31
2023-04-03T12:31:10.412Z,58.45
2023-04-03T12:32:10.109Z,58.31
2023-04-03T12:33:13.068Z,58.11
2023-04-03T12:34:10.093Z,58.42
2023-04-03T12:35:10.167Z,56.18
2023-04-03T12:36:10.132Z,55.87
2023-04-03T12:37:10.082Z,55.66
2023-04-03T12:38:10.041Z,55.98
2023-04-03T12:39:10.019Z,56.38
2023-04-03T12:40:10.052Z,57.50
2023-04-03T12:41:09.983Z,57.46
2023-04-03T12:42:09.979Z,57.85
2023-04-03T12:43:09.959Z,56.02
2023-04-03T12:44:09.948Z,55.93
2023-04-03T12:45:09.937Z,53.97
2023-04-03T12:46:10.046Z,54.10
2023-04-03T12:47:10.075Z,55.57
2023-04-03T12:48:09.950Z,55.54
2023-04-03T12:49:09.879Z,55.64
2023-04-03T12:50:09.870Z,55.46
2023-04-03T12:51:09.869Z,55.15
2023-04-03T12:52:09.852Z,55.13
2023-04-03T12:53:09.832Z,55.15
2023-04-03T12:54:09.809Z,54.85